Time;durP1;ratioP1;P1;durP2;ratioP2;P2;SDS_P1;SDS_P2;PMS_P1;PMS_P2;Temp;Humidity;BMP_temperature;BMP_pressure;BME280_temperature;BME280_humidity;BME280_pressure;Samples;Min_cycle;Max_cycle;Signal;HPM_P1;HPM_P2
2023/03/11 00:02:22;;;;;;;14.93;8.67;;;-0.20;99.90;;;;;;4994683;28;20233;-78
2023/03/11 00:04:48;;;;;;;35.37;9.67;;;-0.20;99.90;;;;;;4998825;28;20483;-78
2023/03/11 00:07:17;;;;;;;13.60;9.50;;;-0.20;99.90;;;;;;5001004;28;20644;-79
2023/03/11 00:09:43;;;;;;;13.17;9.43;;;-0.20;99.90;;;;;;5009930;28;20229;-79
2023/03/11 00:12:10;;;;;;;16.67;9.27;;;-0.20;99.90;;;;;;5003910;28;20229;-79
2023/03/11 00:14:37;;;;;;;24.50;9.47;;;-0.20;99.90;;;;;;4996601;28;20733;-78
2023/03/11 00:17:04;;;;;;;14.90;9.33;;;-0.20;99.90;;;;;;5002043;28;20730;-79
2023/03/11 00:19:31;;;;;;;13.87;9.13;;;-0.20;99.90;;;;;;5002915;28;20249;-79
2023/03/11 00:21:58;;;;;;;21.73;10.77;;;-0.20;99.90;;;;;;5000523;28;20225;-79
2023/03/11 00:24:26;;;;;;;30.53;10.27;;;-0.20;99.90;;;;;;5002834;28;20318;-79
2023/03/11 00:26:53;;;;;;;14.03;10.03;;;-0.20;99.90;;;;;;5006244;28;20226;-79
2023/03/11 00:29:20;;;;;;;14.50;10.53;;;-0.20;99.90;;;;;;5001890;28;20230;-79
2023/03/11 00:31:46;;;;;;;12.90;10.23;;;-0.20;99.90;;;;;;5001755;28;20306;-79
2023/03/11 00:34:13;;;;;;;17.03;10.43;;;-0.20;99.90;;;;;;5002330;28;20234;-79
2023/03/11 00:36:40;;;;;;;15.07;10.60;;;-0.10;99.90;;;;;;5001389;28;20239;-79
2023/03/11 00:39:07;;;;;;;29.07;12.20;;;-0.20;99.90;;;;;;5001907;28;20226;-79
2023/03/11 00:41:35;;;;;;;16.17;11.93;;;-0.10;99.90;;;;;;5010198;28;20233;-79
2023/03/11 00:44:01;;;;;;;16.23;11.37;;;-0.10;99.90;;;;;;5005312;28;20288;-79
2023/03/11 00:46:30;;;;;;;17.50;11.40;;;-0.10;99.90;;;;;;5005130;28;20242;-78
2023/03/11 00:48:57;;;;;;;15.37;11.93;;;-0.10;99.90;;;;;;5007292;28;20218;-79
2023/03/11 00:51:24;;;;;;;18.63;12.53;;;-0.10;99.90;;;;;;5005244;28;20765;-79
2023/03/11 00:53:51;;;;;;;14.83;12.70;;;-0.10;99.90;;;;;;5004374;28;20237;-79
2023/03/11 00:56:18;;;;;;;25.87;12.30;;;-0.20;99.90;;;;;;5009193;28;20306;-79
2023/03/11 00:58:46;;;;;;;19.77;13.47;;;-0.10;99.90;;;;;;5008498;28;20790;-79
2023/03/11 01:01:15;;;;;;;20.20;13.27;;;-0.10;99.90;;;;;;4999752;28;21075;-79
2023/03/11 01:03:42;;;;;;;15.70;12.40;;;-0.10;99.90;;;;;;5005240;28;20237;-78
2023/03/11 01:06:11;;;;;;;15.87;12.53;;;-0.10;99.90;;;;;;4996966;28;20224;-77
2023/03/11 01:08:38;;;;;;;16.07;12.90;;;-0.10;99.90;;;;;;5006160;28;20656;-78
2023/03/11 01:11:06;;;;;;;16.60;12.13;;;-0.10;99.90;;;;;;4997507;28;20321;-78
2023/03/11 01:13:34;;;;;;;18.63;13.33;;;-0.10;99.90;;;;;;5001200;28;20235;-78
2023/03/11 01:16:03;;;;;;;19.07;12.87;;;-0.10;99.90;;;;;;5001205;28;20229;-78
2023/03/11 01:18:30;;;;;;;16.83;13.60;;;-0.10;99.90;;;;;;5007135;28;20218;-78
2023/03/11 01:20:57;;;;;;;18.50;12.87;;;-0.10;99.90;;;;;;4994435;28;20222;-78
2023/03/11 01:23:23;;;;;;;18.93;13.03;;;-0.10;99.90;;;;;;5002309;28;21688;-78
2023/03/11 01:25:50;;;;;;;45.30;14.47;;;-0.10;99.90;;;;;;5004651;28;20216;-78
2023/03/11 01:28:17;;;;;;;18.27;12.97;;;-0.10;99.90;;;;;;5000059;28;20223;-78
2023/03/11 01:30:44;;;;;;;17.80;13.33;;;0.00;99.90;;;;;;5007543;28;20312;-78
2023/03/11 01:33:16;;;;;;;64.33;15.87;;;-0.10;99.90;;;;;;5001209;28;21727;-78
2023/03/11 01:35:44;;;;;;;18.53;13.93;;;-0.10;99.90;;;;;;4999158;28;20224;-78
2023/03/11 01:38:11;;;;;;;23.10;13.60;;;-0.10;99.90;;;;;;5005897;28;20322;-78
2023/03/11 01:40:40;;;;;;;23.63;14.60;;;-0.10;99.90;;;;;;4998964;28;20607;-77
2023/03/11 01:43:54;;;;;;;17.47;13.57;;;-0.10;99.90;;;;;;5011429;28;20250;-77
2023/03/11 01:46:31;;;;;;;19.93;12.03;;;-0.10;99.90;;;;;;4943248;28;20228;-78
2023/03/11 01:49:01;;;;;;;17.47;13.33;;;-0.10;99.90;;;;;;4989818;28;20237;-78
2023/03/11 01:51:38;;;;;;;20.33;13.90;;;-0.10;99.90;;;;;;4996162;28;20228;-78
2023/03/11 01:54:09;;;;;;;15.90;12.60;;;-0.10;99.90;;;;;;5004382;28;20225;-78
2023/03/11 01:56:38;;;;;;;18.57;13.43;;;-0.10;99.90;;;;;;5005091;28;20230;-78
2023/03/11 01:59:06;;;;;;;15.30;13.23;;;-0.10;99.90;;;;;;4999183;28;20238;-78
2023/03/11 02:01:34;;;;;;;16.63;12.13;;;-0.10;99.90;;;;;;5000774;28;20249;-78
2023/03/11 02:04:04;;;;;;;17.37;13.00;;;0.00;99.90;;;;;;4999016;28;20359;-78
2023/03/11 02:06:32;;;;;;;15.73;12.30;;;-0.10;99.90;;;;;;5000053;28;20226;-79
2023/03/11 02:09:00;;;;;;;17.87;12.87;;;-0.10;99.90;;;;;;5013317;28;20857;-79
2023/03/11 02:11:30;;;;;;;18.30;12.50;;;-0.10;99.90;;;;;;4998359;28;20214;-79
2023/03/11 02:14:01;;;;;;;15.43;11.40;;;-0.10;99.90;;;;;;5000723;28;20228;-78
2023/03/11 02:16:28;;;;;;;16.90;12.93;;;-0.20;99.90;;;;;;5016346;28;20219;-79
2023/03/11 02:18:55;;;;;;;19.60;12.00;;;-0.10;99.90;;;;;;5003974;28;20221;-79
2023/03/11 02:21:26;;;;;;;15.50;12.07;;;-0.10;99.90;;;;;;5010756;28;20261;-78
2023/03/11 02:24:03;;;;;;;17.37;12.23;;;-0.20;99.90;;;;;;5013541;28;20221;-79
2023/03/11 02:26:35;;;;;;;15.53;11.80;;;-0.20;99.90;;;;;;5000259;28;20225;-79
2023/03/11 02:29:06;;;;;;;16.97;12.03;;;-0.20;99.90;;;;;;4994660;28;20229;-79
2023/03/11 02:31:33;;;;;;;16.90;12.87;;;-0.20;99.90;;;;;;4996114;28;20236;-79
2023/03/11 02:34:03;;;;;;;17.27;12.60;;;-0.30;99.90;;;;;;5000420;28;20227;-79
2023/03/11 02:36:35;;;;;;;15.47;12.23;;;-0.20;99.90;;;;;;5005327;28;20225;-79
2023/03/11 02:39:03;;;;;;;16.60;12.07;;;-0.30;99.90;;;;;;4997107;28;20229;-78
2023/03/11 02:41:32;;;;;;;17.57;13.40;;;-0.30;99.90;;;;;;5002036;28;20241;-78
2023/03/11 02:44:01;;;;;;;16.33;12.10;;;-0.30;99.90;;;;;;5001785;28;20528;-78
2023/03/11 02:46:31;;;;;;;23.57;12.50;;;-0.20;99.90;;;;;;5000288;28;20638;-78
2023/03/11 02:49:00;;;;;;;34.43;14.20;;;-0.30;99.90;;;;;;5002595;28;20649;-78
2023/03/11 02:51:27;;;;;;;15.93;12.73;;;-0.30;99.90;;;;;;4997569;28;20224;-78
2023/03/11 02:53:58;;;;;;;16.50;11.97;;;-0.30;99.90;;;;;;4997717;28;20267;-78
2023/03/11 02:56:25;;;;;;;16.33;12.23;;;-0.30;99.90;;;;;;5001744;28;20241;-78
2023/03/11 02:58:52;;;;;;;18.70;12.70;;;-0.30;99.90;;;;;;4996267;28;20232;-79
2023/03/11 03:01:20;;;;;;;16.30;12.47;;;-0.30;99.90;;;;;;4997355;28;20566;-79
2023/03/11 03:03:50;;;;;;;20.60;13.07;;;-0.30;99.90;;;;;;5000670;28;20698;-79
2023/03/11 03:06:16;;;;;;;16.27;12.07;;;-0.30;99.90;;;;;;4993225;28;20237;-79
2023/03/11 03:08:43;;;;;;;15.57;12.03;;;-0.40;99.90;;;;;;4998579;28;20232;-79
2023/03/11 03:11:10;;;;;;;15.33;11.37;;;-0.40;99.90;;;;;;4999580;28;20248;-79
2023/03/11 03:13:37;;;;;;;15.83;11.70;;;-0.40;99.90;;;;;;4996781;28;20313;-79
2023/03/11 03:16:04;;;;;;;16.13;12.17;;;-0.40;99.90;;;;;;4997264;28;20234;-79
2023/03/11 03:18:32;;;;;;;16.50;11.47;;;-0.40;99.90;;;;;;4996822;28;20783;-79
2023/03/11 03:21:00;;;;;;;17.63;12.33;;;-0.40;99.90;;;;;;4993780;28;20825;-79
2023/03/11 03:23:27;;;;;;;14.87;11.80;;;-0.40;99.90;;;;;;4997312;28;20244;-80
2023/03/11 03:25:54;;;;;;;17.77;12.33;;;-0.40;99.90;;;;;;4998653;28;20227;-79
2023/03/11 03:28:21;;;;;;;23.50;11.80;;;-0.40;99.90;;;;;;5001052;28;20222;-78
2023/03/11 03:30:48;;;;;;;14.80;11.70;;;-0.40;99.90;;;;;;4989781;28;20221;-78
2023/03/11 03:33:15;;;;;;;15.83;10.73;;;-0.50;99.90;;;;;;4997673;28;20316;-79
2023/03/11 03:35:44;;;;;;;15.47;11.27;;;-0.40;99.90;;;;;;4997553;28;21071;-79
2023/03/11 03:38:35;;;;;;;12.90;10.50;;;-0.50;99.90;;;;;;4995425;28;20235;-78
2023/03/11 03:41:02;;;;;;;14.17;10.50;;;-0.40;99.90;;;;;;4995755;28;20304;-79
2023/03/11 03:43:30;;;;;;;14.90;10.03;;;-0.40;99.90;;;;;;4995203;28;20225;-79
2023/03/11 03:45:57;;;;;;;12.97;10.00;;;-0.40;99.90;;;;;;4992616;28;20260;-78
2023/03/11 03:48:27;;;;;;;16.03;11.20;;;-0.50;99.90;;;;;;4995763;28;20732;-79
2023/03/11 03:50:55;;;;;;;16.53;10.43;;;-0.50;99.90;;;;;;5000946;28;20286;-78
2023/03/11 03:53:22;;;;;;;16.40;11.87;;;-0.50;99.90;;;;;;5002093;28;20267;-79
2023/03/11 03:55:50;;;;;;;56.60;13.00;;;-0.50;99.90;;;;;;5000859;28;20233;-79
2023/03/11 03:58:19;;;;;;;25.43;10.63;;;-0.50;99.90;;;;;;5003712;28;20222;-78
2023/03/11 04:00:46;;;;;;;14.57;10.33;;;-0.50;99.90;;;;;;5000765;28;20225;-79
2023/03/11 04:03:12;;;;;;;20.30;12.23;;;-0.50;99.90;;;;;;4995224;28;20756;-78
2023/03/11 04:05:46;;;;;;;16.13;10.17;;;-0.40;99.90;;;;;;5001867;28;20219;-79
2023/03/11 04:08:14;;;;;;;15.20;10.80;;;-0.40;99.90;;;;;;5009664;28;20344;-80
2023/03/11 04:10:41;;;;;;;16.07;10.13;;;-0.40;99.90;;;;;;5018067;28;20492;-80
2023/03/11 04:13:09;;;;;;;14.67;10.23;;;-0.40;99.90;;;;;;4999330;28;20237;-79
2023/03/11 04:15:37;;;;;;;13.30;10.13;;;-0.40;99.90;;;;;;5005402;28;20228;-79
2023/03/11 04:18:05;;;;;;;12.63;9.53;;;-0.40;99.90;;;;;;4998046;28;20264;-80
2023/03/11 04:20:31;;;;;;;17.67;9.73;;;-0.40;99.90;;;;;;5013417;28;20226;-78
2023/03/11 04:22:58;;;;;;;14.77;10.03;;;-0.40;99.90;;;;;;5000941;28;20217;-79
2023/03/11 04:25:25;;;;;;;26.37;11.73;;;-0.40;99.90;;;;;;5003973;28;20284;-79
2023/03/11 04:27:51;;;;;;;14.43;10.60;;;-0.30;99.90;;;;;;5002280;28;20238;-79
2023/03/11 04:30:21;;;;;;;18.00;10.90;;;-0.40;99.90;;;;;;5002487;28;20217;-79
2023/03/11 04:32:50;;;;;;;14.40;10.00;;;-0.40;99.90;;;;;;4996751;28;20222;-79
2023/03/11 04:35:17;;;;;;;15.67;10.87;;;-0.40;99.90;;;;;;4995739;28;20929;-78
2023/03/11 04:37:45;;;;;;;19.50;10.73;;;-0.40;99.90;;;;;;5002294;28;20236;-78
2023/03/11 04:40:13;;;;;;;14.07;10.87;;;-0.40;99.90;;;;;;4999134;28;20607;-78
2023/03/11 04:42:41;;;;;;;16.80;10.10;;;-0.40;99.90;;;;;;5002373;28;20781;-78
2023/03/11 04:45:09;;;;;;;17.00;10.23;;;-0.50;99.90;;;;;;5002213;28;20807;-78
2023/03/11 04:47:38;;;;;;;17.00;9.93;;;-0.50;99.90;;;;;;4999786;28;20221;-79
2023/03/11 04:50:06;;;;;;;13.60;9.87;;;-0.60;99.90;;;;;;5011336;28;20295;-79
2023/03/11 04:52:33;;;;;;;14.93;10.00;;;-0.60;99.90;;;;;;5009013;28;20228;-77
2023/03/11 04:54:59;;;;;;;12.87;9.70;;;-0.70;99.90;;;;;;4997151;28;20316;-78
2023/03/11 04:57:26;;;;;;;13.70;10.77;;;-0.80;99.90;;;;;;5015424;28;20226;-78
2023/03/11 04:59:53;;;;;;;17.13;9.90;;;-0.80;99.90;;;;;;5001592;28;20226;-78
2023/03/11 05:02:20;;;;;;;17.80;9.87;;;-0.90;99.90;;;;;;5012129;28;20225;-78
2023/03/11 05:04:54;;;;;;;39.50;11.60;;;-0.90;99.90;;;;;;5003902;28;20272;-78
2023/03/11 05:07:21;;;;;;;18.20;10.60;;;-0.90;99.90;;;;;;5001107;28;20232;-78
2023/03/11 05:09:48;;;;;;;22.17;11.03;;;-0.90;99.90;;;;;;4994160;28;20316;-78
2023/03/11 05:12:15;;;;;;;21.23;10.43;;;-1.00;99.90;;;;;;5004493;28;20248;-78
2023/03/11 05:14:46;;;;;;;16.37;10.90;;;-0.90;99.90;;;;;;4999494;28;20264;-78
2023/03/11 05:17:13;;;;;;;13.50;10.00;;;-0.90;99.90;;;;;;5017021;28;20241;-78
2023/03/11 05:19:41;;;;;;;13.50;9.87;;;-0.90;99.90;;;;;;4996592;28;20244;-77
2023/03/11 05:22:17;;;;;;;16.50;12.03;;;-0.90;99.90;;;;;;5014818;28;20232;-78
2023/03/11 05:24:45;;;;;;;26.63;12.20;;;-0.90;99.90;;;;;;5004705;28;20784;-78
2023/03/11 05:27:15;;;;;;;18.03;10.63;;;-0.90;99.90;;;;;;5001137;28;20657;-78
2023/03/11 05:29:42;;;;;;;17.10;11.10;;;-0.80;99.90;;;;;;4992887;28;20218;-79
2023/03/11 05:32:12;;;;;;;16.17;10.43;;;-0.80;99.90;;;;;;5003942;28;20217;-79
2023/03/11 05:34:39;;;;;;;14.33;10.70;;;-0.80;99.90;;;;;;5004010;28;20394;-81
2023/03/11 05:37:07;;;;;;;18.90;10.87;;;-0.80;99.90;;;;;;5000044;28;20232;-78
2023/03/11 05:39:36;;;;;;;19.50;11.07;;;-0.80;99.90;;;;;;5001101;28;20598;-84
2023/03/11 05:42:04;;;;;;;19.40;10.37;;;-0.70;99.90;;;;;;5010384;28;20218;-82
2023/03/11 05:44:32;;;;;;;15.23;10.03;;;-0.70;99.90;;;;;;5003491;28;20225;-82
2023/03/11 05:46:59;;;;;;;15.13;10.87;;;-0.70;99.90;;;;;;5005187;28;20229;-83
2023/03/11 05:49:27;;;;;;;52.47;13.00;;;-0.70;99.90;;;;;;5002994;28;20313;-84
2023/03/11 05:51:55;;;;;;;36.53;11.87;;;-0.70;99.90;;;;;;5001458;28;20236;-84
2023/03/11 05:54:23;;;;;;;17.27;10.30;;;-0.70;99.90;;;;;;4998252;28;20325;-83
2023/03/11 05:56:54;;;;;;;50.30;11.93;;;-0.70;99.90;;;;;;4998337;28;20256;-83
2023/03/11 05:59:22;;;;;;;14.10;10.33;;;-0.70;99.90;;;;;;5005060;28;20756;-83
2023/03/11 06:01:54;;;;;;;30.10;11.30;;;-0.80;99.90;;;;;;5001386;28;20233;-82
2023/03/11 06:04:22;;;;;;;16.17;10.73;;;-0.70;99.90;;;;;;5002900;28;20227;-82
2023/03/11 06:06:49;;;;;;;15.47;10.67;;;-0.70;99.90;;;;;;4999908;28;20210;-77
2023/03/11 06:09:18;;;;;;;29.03;11.47;;;-0.80;99.90;;;;;;4998299;28;20305;-79
2023/03/11 06:11:45;;;;;;;26.27;11.23;;;-0.80;99.90;;;;;;4994370;28;20221;-78
2023/03/11 06:14:16;;;;;;;13.77;10.20;;;-0.80;99.90;;;;;;4998752;28;20752;-78
2023/03/11 06:16:45;;;;;;;33.93;10.47;;;-0.90;99.90;;;;;;5003062;28;20225;-78
2023/03/11 06:19:13;;;;;;;20.20;10.77;;;-0.80;99.90;;;;;;4998619;28;20241;-78
2023/03/11 06:21:44;;;;;;;15.07;9.83;;;-0.90;99.90;;;;;;4998949;28;20234;-77
2023/03/11 06:24:10;;;;;;;15.40;9.73;;;-0.90;99.90;;;;;;5003217;28;20233;-78
2023/03/11 06:26:37;;;;;;;12.73;9.30;;;-0.90;99.90;;;;;;5000098;28;20272;-77
2023/03/11 06:29:04;;;;;;;11.53;9.27;;;-0.90;99.90;;;;;;4996366;28;20957;-78
2023/03/11 06:31:33;;;;;;;19.50;9.90;;;-0.90;99.90;;;;;;5011471;28;20233;-77
2023/03/11 06:34:06;;;;;;;19.27;10.00;;;-0.90;99.90;;;;;;5002928;28;20226;-77
2023/03/11 06:36:33;;;;;;;15.07;9.57;;;-0.90;99.90;;;;;;4994158;28;20909;-77
2023/03/11 06:39:00;;;;;;;19.07;10.40;;;-0.90;99.90;;;;;;4998041;28;20225;-77
2023/03/11 06:41:28;;;;;;;17.23;9.60;;;-0.90;99.90;;;;;;4998938;28;20228;-78
2023/03/11 06:43:59;;;;;;;14.37;9.30;;;-0.90;99.90;;;;;;4995237;28;20236;-77
2023/03/11 06:46:27;;;;;;;11.80;8.80;;;-0.90;99.90;;;;;;4994836;28;20236;-77
2023/03/11 06:48:57;;;;;;;12.27;9.00;;;-0.90;99.90;;;;;;5011229;28;20247;-76
2023/03/11 06:51:24;;;;;;;13.57;9.53;;;-0.90;99.90;;;;;;5007004;28;20241;-77
2023/03/11 06:53:53;;;;;;;16.60;10.13;;;-0.90;99.90;;;;;;5003276;28;20236;-77
2023/03/11 06:56:23;;;;;;;11.50;8.47;;;-0.90;99.90;;;;;;4988639;28;20219;-76
2023/03/11 06:58:55;;;;;;;13.90;8.93;;;-0.90;99.90;;;;;;4995170;28;20304;-76
2023/03/11 07:01:24;;;;;;;14.53;8.77;;;-0.80;99.90;;;;;;4995656;28;20221;-76
2023/03/11 07:03:53;;;;;;;12.30;8.60;;;-0.80;99.90;;;;;;5004307;28;20244;-77
2023/03/11 07:06:24;;;;;;;11.93;8.10;;;-0.80;99.90;;;;;;5006810;28;20272;-76
2023/03/11 07:08:54;;;;;;;14.87;8.30;;;-0.70;99.90;;;;;;4994768;28;20225;-77
2023/03/11 07:11:22;;;;;;;11.67;8.33;;;-0.70;99.90;;;;;;4996868;28;20288;-81
2023/03/11 07:13:51;;;;;;;10.57;7.97;;;-0.70;99.90;;;;;;5001872;28;20589;-78
2023/03/11 07:16:20;;;;;;;11.70;8.17;;;-0.70;99.90;;;;;;4996336;28;20220;-80
2023/03/11 07:18:49;;;;;;;14.83;8.93;;;-0.60;99.90;;;;;;4996840;28;20223;-81
2023/03/11 07:21:19;;;;;;;12.40;8.30;;;-0.60;99.90;;;;;;4996672;28;20719;-77
2023/03/11 07:23:48;;;;;;;10.87;7.90;;;-0.50;99.90;;;;;;5002915;28;20225;-76
2023/03/11 07:26:16;;;;;;;57.67;10.33;;;-0.50;99.90;;;;;;5012181;28;20237;-77
2023/03/11 07:28:44;;;;;;;14.50;8.93;;;-0.40;99.90;;;;;;5002814;28;20224;-79
2023/03/11 07:31:13;;;;;;;23.00;8.73;;;-0.30;99.90;;;;;;4995761;28;20442;-78
2023/03/11 07:33:39;;;;;;;29.10;9.03;;;-0.30;99.90;;;;;;4997953;28;20306;-77
2023/03/11 07:36:07;;;;;;;11.30;8.10;;;-0.20;99.90;;;;;;5003841;28;20240;-83
2023/03/11 07:38:34;;;;;;;13.57;8.50;;;-0.10;99.90;;;;;;4999918;28;20751;-77
2023/03/11 07:41:03;;;;;;;12.47;7.77;;;0.00;99.90;;;;;;5004351;28;20233;-78
2023/03/11 07:43:30;;;;;;;9.40;6.63;;;0.10;99.90;;;;;;5008663;28;20816;-78
2023/03/11 07:46:04;;;;;;;11.17;7.00;;;0.30;99.90;;;;;;5001453;28;20587;-79
2023/03/11 07:48:31;;;;;;;9.60;7.63;;;0.40;99.90;;;;;;5003682;28;20222;-80
2023/03/11 07:51:02;;;;;;;9.80;7.17;;;0.60;99.90;;;;;;4994091;28;20229;-79
2023/03/11 07:53:29;;;;;;;8.57;7.17;;;0.80;99.90;;;;;;4997180;28;20228;-79
2023/03/11 07:55:56;;;;;;;8.17;6.33;;;1.10;99.90;;;;;;4990856;28;20213;-78
2023/03/11 07:58:24;;;;;;;8.63;6.73;;;1.50;99.90;;;;;;4999994;28;20941;-79
2023/03/11 08:00:51;;;;;;;8.20;6.47;;;1.70;99.90;;;;;;4995589;28;20224;-79
2023/03/11 08:03:18;;;;;;;7.43;5.97;;;2.00;99.90;;;;;;5000521;28;20229;-78
2023/03/11 08:05:45;;;;;;;11.97;7.97;;;2.30;99.90;;;;;;5008189;28;20230;-79
2023/03/11 08:08:12;;;;;;;7.57;6.13;;;2.50;99.90;;;;;;4996788;28;20229;-79
2023/03/11 08:10:39;;;;;;;8.07;5.20;;;2.70;99.90;;;;;;5011513;28;20229;-79
2023/03/11 08:13:05;;;;;;;8.47;5.57;;;2.90;99.90;;;;;;5006210;28;20236;-79
2023/03/11 08:15:34;;;;;;;8.03;5.47;;;3.10;99.90;;;;;;5004913;28;20241;-78
2023/03/11 08:18:00;;;;;;;13.20;7.77;;;3.20;99.90;;;;;;5002769;28;20231;-77
2023/03/11 08:20:27;;;;;;;5.90;4.93;;;3.30;99.90;;;;;;4998883;28;20222;-79
2023/03/11 08:22:53;;;;;;;6.80;5.03;;;3.20;99.90;;;;;;5007620;28;20222;-77
2023/03/11 08:25:20;;;;;;;7.40;4.90;;;3.20;99.90;;;;;;4999749;28;20593;-78
2023/03/11 08:27:48;;;;;;;76.73;38.97;;;3.20;99.90;;;;;;5001701;28;20533;-76
2023/03/11 08:30:15;;;;;;;14.00;8.40;;;3.20;99.90;;;;;;4992489;28;20229;-78
2023/03/11 08:32:43;;;;;;;13.50;6.27;;;3.30;99.90;;;;;;4999649;28;20237;-78
2023/03/11 08:35:10;;;;;;;5.33;4.53;;;3.40;99.90;;;;;;5000652;28;20324;-79
2023/03/11 08:37:36;;;;;;;6.83;4.70;;;3.60;99.90;;;;;;5000527;28;20236;-79
2023/03/11 08:40:04;;;;;;;5.47;4.17;;;3.80;99.90;;;;;;5002389;28;20214;-79
2023/03/11 08:42:31;;;;;;;6.17;4.73;;;4.10;99.90;;;;;;5015339;28;20227;-79
2023/03/11 08:44:57;;;;;;;4.90;4.40;;;4.40;99.90;;;;;;5002357;28;20251;-79
2023/03/11 08:47:24;;;;;;;5.13;4.03;;;4.70;99.90;;;;;;5001919;28;20330;-79
2023/03/11 08:49:52;;;;;;;5.33;3.50;;;5.10;99.90;;;;;;5005544;28;20253;-80
2023/03/11 08:52:19;;;;;;;5.47;3.70;;;5.60;99.90;;;;;;4996009;28;20238;-79
2023/03/11 08:54:45;;;;;;;5.80;3.80;;;6.00;99.90;;;;;;5001769;28;20242;-79
2023/03/11 08:57:12;;;;;;;3.73;3.33;;;6.40;99.90;;;;;;4997565;28;20220;-79
2023/03/11 08:59:39;;;;;;;4.40;3.50;;;6.90;99.90;;;;;;5001809;28;20222;-79
2023/03/11 09:02:05;;;;;;;4.00;3.13;;;7.50;99.90;;;;;;5002490;28;20908;-78
2023/03/11 09:04:32;;;;;;;4.20;3.47;;;8.00;99.90;;;;;;5015004;28;20944;-78
2023/03/11 09:07:00;;;;;;;4.77;3.30;;;8.50;99.90;;;;;;5010237;28;20670;-79
2023/03/11 09:09:27;;;;;;;3.67;3.13;;;8.90;99.90;;;;;;5002316;28;20231;-78
2023/03/11 09:11:53;;;;;;;4.40;3.00;;;9.40;99.90;;;;;;5004899;28;20238;-78
2023/03/11 09:14:20;;;;;;;3.90;3.00;;;9.70;99.90;;;;;;5016872;28;20634;-78
2023/03/11 09:16:47;;;;;;;5.37;3.47;;;10.00;99.90;;;;;;5005443;28;20265;-78
2023/03/11 09:19:13;;;;;;;4.67;3.20;;;10.20;99.90;;;;;;5006908;28;20225;-78
2023/03/11 09:21:40;;;;;;;3.97;3.27;;;10.40;99.90;;;;;;5006819;28;20239;-78
2023/03/11 09:24:08;;;;;;;3.80;2.80;;;10.70;99.90;;;;;;4998774;28;20861;-78
2023/03/11 09:26:35;;;;;;;4.23;2.87;;;10.90;99.90;;;;;;5001708;28;20221;-79
2023/03/11 09:29:02;;;;;;;4.43;3.10;;;11.10;99.90;;;;;;4997840;28;20252;-79
2023/03/11 09:31:28;;;;;;;5.20;3.33;;;11.30;99.80;;;;;;4996633;28;20917;-78
2023/03/11 09:33:55;;;;;;;4.40;3.03;;;11.50;99.10;;;;;;5016329;28;20234;-79
2023/03/11 09:36:22;;;;;;;3.47;2.77;;;11.70;99.40;;;;;;5002397;28;20222;-78
2023/03/11 09:38:49;;;;;;;4.17;3.00;;;11.80;98.70;;;;;;4999443;28;20285;-79
2023/03/11 09:41:27;;;;;;;4.23;2.50;;;12.00;97.70;;;;;;5019664;28;20232;-79
2023/03/11 09:44:05;;;;;;;5.57;3.00;;;12.00;96.70;;;;;;5003253;28;20745;-79
2023/03/11 09:46:59;;;;;;;4.43;2.60;;;12.10;96.30;;;;;;5001293;28;20224;-79
2023/03/11 09:49:40;;;;;;;4.13;2.43;;;12.10;96.30;;;;;;4996659;28;20233;-78
2023/03/11 09:52:10;;;;;;;5.63;2.60;;;12.10;96.20;;;;;;4996471;28;20237;-78
2023/03/11 09:54:40;;;;;;;3.67;2.50;;;12.10;96.40;;;;;;5001111;28;20229;-78
2023/03/11 09:57:12;;;;;;;3.00;2.10;;;12.10;95.60;;;;;;4998906;28;20230;-78
2023/03/11 09:59:42;;;;;;;2.47;2.07;;;12.10;95.80;;;;;;5002950;28;20222;-78
2023/03/11 10:02:15;;;;;;;3.77;2.50;;;12.10;95.90;;;;;;4995962;28;20244;-78
2023/03/11 10:04:45;;;;;;;5.17;2.37;;;12.10;95.50;;;;;;4998006;28;21349;-78
2023/03/11 10:07:17;;;;;;;4.93;2.53;;;12.20;96.10;;;;;;5000277;28;20229;-79
2023/03/11 10:09:50;;;;;;;3.77;2.00;;;12.20;95.20;;;;;;4999992;28;20230;-79
2023/03/11 10:12:33;;;;;;;4.53;2.40;;;12.20;94.80;;;;;;4998132;28;20227;-80
2023/03/11 10:15:15;;;;;;;5.67;2.10;;;12.20;94.30;;;;;;4998345;28;20241;-80
2023/03/11 10:18:05;;;;;;;3.00;2.20;;;12.10;93.90;;;;;;4999799;28;20699;-80
2023/03/11 10:20:40;;;;;;;4.70;2.33;;;12.00;93.40;;;;;;4998960;28;20893;-80
2023/03/11 10:23:19;;;;;;;3.63;1.93;;;12.00;95.30;;;;;;5008864;28;20221;-81
2023/03/11 10:25:56;;;;;;;3.33;2.13;;;11.90;95.20;;;;;;5001186;28;20313;-82
2023/03/11 10:28:28;;;;;;;6.03;2.90;;;11.90;94.80;;;;;;4995839;28;20813;-82
2023/03/11 10:31:00;;;;;;;5.43;2.37;;;11.80;94.20;;;;;;5003459;28;20230;-81
2023/03/11 10:33:32;;;;;;;2.97;2.00;;;11.80;94.80;;;;;;5009264;28;20226;-82
2023/03/11 10:36:04;;;;;;;2.70;1.80;;;11.70;93.70;;;;;;4993974;28;20218;-82
2023/03/11 10:38:34;;;;;;;3.83;2.03;;;11.60;94.00;;;;;;5000007;28;20717;-81
2023/03/11 10:41:06;;;;;;;7.23;2.17;;;11.50;93.90;;;;;;5002904;28;20697;-82
2023/03/11 10:43:39;;;;;;;5.37;2.13;;;11.40;94.40;;;;;;4997936;28;20225;-82
2023/03/11 10:46:14;;;;;;;4.53;1.77;;;11.30;93.80;;;;;;4995667;28;20232;-81
2023/03/11 10:48:41;;;;;;;2.77;2.13;;;11.20;94.40;;;;;;5005573;28;20319;-81
2023/03/11 10:51:16;;;;;;;3.27;1.93;;;11.20;94.50;;;;;;5007464;28;20233;-81
2023/03/11 10:53:46;;;;;;;2.67;1.80;;;11.10;94.10;;;;;;5005472;28;20236;-81
2023/03/11 10:56:26;;;;;;;3.83;1.90;;;11.10;94.50;;;;;;5006598;28;20233;-81
2023/03/11 10:58:54;;;;;;;3.00;1.73;;;11.00;94.40;;;;;;5004591;28;20226;-80
2023/03/11 11:01:22;;;;;;;3.37;2.10;;;10.90;94.90;;;;;;5002342;28;20273;-80
2023/03/11 11:03:50;;;;;;;6.17;2.10;;;10.90;95.70;;;;;;4999705;28;20235;-80
2023/03/11 11:06:23;;;;;;;4.67;2.20;;;10.90;95.20;;;;;;4994735;28;20214;-80
2023/03/11 11:09:05;;;;;;;5.13;2.13;;;11.00;94.80;;;;;;4997657;28;20227;-80
2023/03/11 11:11:32;;;;;;;3.27;1.60;;;11.00;94.50;;;;;;5001858;28;20308;-80
2023/03/11 11:14:01;;;;;;;3.80;1.97;;;11.00;95.80;;;;;;4996798;28;20231;-80
2023/03/11 11:16:28;;;;;;;4.03;1.70;;;11.00;94.80;;;;;;4996905;28;20261;-80
2023/03/11 11:19:03;;;;;;;4.13;2.03;;;11.00;94.70;;;;;;4999392;28;20236;-79
2023/03/11 11:21:32;;;;;;;3.60;1.70;;;10.90;93.90;;;;;;5000565;28;20305;-79
2023/03/11 11:24:09;;;;;;;5.10;1.83;;;10.90;94.80;;;;;;4992835;28;20233;-79
2023/03/11 11:26:36;;;;;;;5.47;2.00;;;10.70;94.30;;;;;;5007165;28;20233;-79
2023/03/11 11:29:13;;;;;;;3.07;1.70;;;10.60;94.60;;;;;;5001900;28;20228;-78
2023/03/11 11:31:41;;;;;;;2.27;1.40;;;10.50;94.30;;;;;;5010590;28;20232;-78
2023/03/11 11:34:28;;;;;;;2.87;1.27;;;10.40;95.20;;;;;;5007689;28;20611;-79
2023/03/11 11:36:57;;;;;;;4.60;1.90;;;10.30;94.90;;;;;;4996142;28;20246;-79
2023/03/11 11:39:27;;;;;;;4.47;1.83;;;10.30;95.40;;;;;;4995244;28;22479;-79
2023/03/11 11:41:55;;;;;;;4.50;1.73;;;10.20;95.20;;;;;;4999268;28;20287;-79
2023/03/11 11:44:29;;;;;;;3.57;1.60;;;10.20;95.00;;;;;;4998504;28;20226;-78
2023/03/11 11:47:02;;;;;;;3.50;1.87;;;10.00;94.50;;;;;;4999753;28;20235;-78
2023/03/11 11:49:31;;;;;;;5.43;2.07;;;9.90;94.50;;;;;;4996539;28;20952;-78
2023/03/11 11:52:02;;;;;;;8.03;2.10;;;9.60;94.40;;;;;;5010985;28;20224;-79
2023/03/11 11:54:33;;;;;;;4.73;2.07;;;9.40;94.70;;;;;;4998567;28;20323;-79
2023/03/11 11:57:01;;;;;;;4.40;1.70;;;9.20;95.30;;;;;;4986589;28;20233;-80
2023/03/11 11:59:31;;;;;;;3.13;1.90;;;9.10;96.00;;;;;;4997703;28;20226;-80
2023/03/11 12:02:07;;;;;;;3.90;1.87;;;9.00;96.40;;;;;;5001723;28;20225;-80
2023/03/11 12:04:47;;;;;;;5.43;2.37;;;9.00;96.70;;;;;;5001601;28;20291;-80
2023/03/11 12:07:27;;;;;;;6.17;2.00;;;9.00;96.10;;;;;;5006922;28;20224;-80
2023/03/11 12:10:04;;;;;;;3.97;1.57;;;9.00;96.30;;;;;;4994980;28;20244;-80
2023/03/11 12:12:36;;;;;;;3.47;1.60;;;9.10;96.10;;;;;;5011601;28;20995;-80
2023/03/11 12:15:12;;;;;;;4.43;1.70;;;9.10;96.40;;;;;;5013965;28;20659;-80
2023/03/11 12:17:43;;;;;;;4.43;1.67;;;9.10;95.20;;;;;;5005424;28;20970;-80
2023/03/11 12:20:16;;;;;;;4.17;1.70;;;9.00;94.90;;;;;;4997676;28;20234;-80
2023/03/11 12:23:10;;;;;;;3.63;1.70;;;8.80;95.30;;;;;;5015427;28;20230;-80
2023/03/11 12:25:45;;;;;;;3.10;1.53;;;8.60;95.00;;;;;;4995334;28;20706;-80
2023/03/11 12:28:22;;;;;;;5.27;1.70;;;8.40;95.70;;;;;;5002280;28;20222;-81
2023/03/11 12:30:53;;;;;;;3.77;1.47;;;8.20;95.60;;;;;;5013458;28;20318;-81
2023/03/11 12:33:27;;;;;;;3.20;1.30;;;8.00;95.70;;;;;;5006407;28;20234;-81
2023/03/11 12:35:57;;;;;;;3.20;1.10;;;7.80;96.20;;;;;;5017174;28;20314;-81
2023/03/11 12:38:31;;;;;;;4.90;1.43;;;7.80;96.60;;;;;;5002533;28;20232;-82
2023/03/11 12:41:04;;;;;;;2.47;1.30;;;7.70;95.70;;;;;;4991907;28;20253;-83
2023/03/11 12:44:08;;;;;;;5.80;0.93;;;7.70;96.00;;;;;;5009250;28;20844;-82
2023/03/11 12:47:10;;;;;;;3.00;1.03;;;7.70;95.80;;;;;;5019835;28;20239;-81
2023/03/11 12:49:40;;;;;;;3.07;0.83;;;7.60;95.20;;;;;;5002291;28;20224;-83
2023/03/11 12:52:19;;;;;;;2.43;0.90;;;7.50;95.40;;;;;;5002912;28;20226;-83